Terminal Aerodrome Forecast
Issued by NWS Corpus Christi, TX

Home | Current Version | Previous Version | Text Only | Print | Product List | Glossary On
Versions: 1 2 3 4 5 6 7 8 9 10 11 12 13 14 15 16 17 18 19 20 21
000
FTUS44 KCRP 182300
TAFCRP
TAF
KCRP 182340Z 1900/1924 12011KT P6SM SCT050 BKN250
     FM191000 07003KT P6SM SCT015 BKN250
     FM191500 12012KT P6SM SCT025 BKN250
     FM191800 13015G20KT P6SM SCT025 BKN250=

USA.gov is the U.S. government's official web portal to all federal, state and local government web resources and services.